Time;durP1;ratioP1;P1;durP2;ratioP2;P2;SDS_P1;SDS_P2;PMS_P1;PMS_P2;Temp;Humidity;BMP_temperature;BMP_pressure;BME280_temperature;BME280_humidity;BME280_pressure;Samples;Min_cycle;Max_cycle;Signal;HPM_P1;HPM_P2
2023/09/06 07:23:09;;;;;;;6.90;6.07;;;;;;;-145.79;67.25;77125.03;5320146;27;20651;-73
2023/09/06 07:25:47;;;;;;;8.15;6.43;;;;;;;-145.79;67.06;77120.81;5296127;28;20055;-74
2023/09/06 07:28:22;;;;;;;7.63;6.30;;;;;;;-145.79;67.07;77110.22;5300493;28;20051;-73
2023/09/06 07:30:54;;;;;;;7.20;5.97;;;;;;;-145.79;66.72;77105.97;5300643;28;20115;-72
2023/09/06 07:33:25;;;;;;;8.07;5.20;;;;;;;-145.79;66.45;77091.13;5300938;28;20450;-72
2023/09/06 07:35:57;;;;;;;7.30;5.70;;;;;;;-145.79;66.20;77084.78;5299667;28;20060;-73
2023/09/06 07:38:28;;;;;;;10.02;6.05;;;;;;;-145.79;65.63;77069.94;5301114;28;20031;-74
2023/09/06 07:41:05;;;;;;;7.28;4.70;;;;;;;-145.79;65.67;77065.69;5300504;28;20033;-73
2023/09/06 07:43:37;;;;;;;5.93;4.68;;;;;;;-145.79;65.68;77055.09;5299793;28;20024;-73
2023/09/06 07:46:09;;;;;;;6.68;5.25;;;;;;;-145.79;64.90;77050.88;5300235;28;20020;-75
2023/09/06 07:48:41;;;;;;;8.60;4.63;;;;;;;-145.79;64.62;77040.25;5300886;28;20048;-74
2023/09/06 07:51:12;;;;;;;5.35;4.82;;;;;;;-145.79;64.78;77033.91;5298400;28;20436;-73
2023/09/06 07:53:45;;;;;;;6.20;5.10;;;;;;;-145.79;64.55;77023.31;5293623;28;20040;-74
2023/09/06 07:56:16;;;;;;;5.75;5.15;;;;;;;-145.79;64.55;77016.94;5300185;28;20031;-74
2023/09/06 07:58:48;;;;;;;5.75;4.60;;;;;;;-145.79;63.39;77010.59;5299642;28;20467;-72
2023/09/06 08:01:19;;;;;;;6.40;4.95;;;;;;;-145.79;62.46;77004.25;5300363;28;20037;-71
2023/09/06 08:03:50;;;;;;;6.18;4.95;;;;;;;-145.79;62.10;76987.28;5299547;28;20161;-74
2023/09/06 08:06:22;;;;;;;12.90;10.20;;;;;;;-145.79;61.27;76978.81;5299456;28;20020;-74
2023/09/06 08:08:53;;;;;;;5.25;4.38;;;;;;;-145.79;62.06;76974.56;5293690;28;20494;-73
2023/09/06 08:11:25;;;;;;;7.25;4.32;;;;;;;-145.79;61.94;76963.97;5298966;28;20037;-74
2023/09/06 08:13:56;;;;;;;9.70;8.10;;;;;;;-145.79;62.40;76961.84;5300096;28;20361;-74
2023/09/06 08:16:28;;;;;;;10.60;8.35;;;;;;;-145.79;61.15;76959.72;5299942;28;20048;-74
2023/09/06 08:18:59;;;;;;;7.35;5.22;;;;;;;-145.79;60.97;76953.38;5298396;28;20032;-74
2023/09/06 08:21:31;;;;;;;5.28;4.68;;;;;;;-145.79;61.59;76938.53;5294109;28;20041;-75
2023/09/06 08:24:03;;;;;;;7.22;4.90;;;;;;;-145.79;61.48;76932.19;5288662;28;20074;-75
2023/09/06 08:26:36;;;;;;;7.80;4.53;;;;;;;-145.79;61.42;76915.22;5290751;28;20433;-74
2023/09/06 08:29:07;;;;;;;7.10;4.75;;;;;;;-145.79;60.81;76915.22;5282646;28;20031;-75
2023/09/06 08:31:39;;;;;;;5.65;4.47;;;;;;;-145.79;60.71;76902.50;5286278;28;20024;-74
2023/09/06 08:34:11;;;;;;;9.18;5.07;;;;;;;-145.79;60.96;76889.78;5279309;28;20028;-74
2023/09/06 08:36:42;;;;;;;5.55;4.95;;;;;;;-145.79;60.30;76885.56;5273169;28;20083;-74
2023/09/06 08:39:13;;;;;;;6.72;4.30;;;;;;;-145.79;59.51;76870.72;5274502;28;20131;-75
2023/09/06 08:41:48;;;;;;;5.32;4.00;;;;;;;-145.79;59.41;76860.13;5272773;28;20052;-75
2023/09/06 08:44:24;;;;;;;5.28;3.67;;;;;;;-145.79;59.38;76853.75;5276646;28;20486;-75
2023/09/06 08:46:59;;;;;;;5.18;4.03;;;;;;;-145.79;58.02;76841.03;5275999;28;20031;-75
2023/09/06 08:49:31;;;;;;;5.88;4.50;;;;;;;-145.79;57.36;76838.94;5257887;28;20031;-75
2023/09/06 08:52:05;;;;;;;8.68;7.57;;;;;;;-145.79;57.85;76838.94;5272742;28;20033;-76
2023/09/06 08:54:37;;;;;;;4.35;3.45;;;;;;;-145.79;57.24;76824.09;5264103;28;20024;-74
2023/09/06 08:57:09;;;;;;;5.63;3.15;;;;;;;-145.79;57.04;76811.38;5269901;28;20035;-75
2023/09/06 08:59:41;;;;;;;5.97;3.30;;;;;;;-145.79;57.13;76807.13;5258848;28;20017;-74
2023/09/06 09:02:14;;;;;;;5.13;3.60;;;;;;;-145.79;56.68;76798.66;5271044;28;20087;-73
2023/09/06 09:04:46;;;;;;;5.43;3.10;;;;;;;-145.79;57.33;76783.81;5276003;28;20103;-75
2023/09/06 09:07:18;;;;;;;3.30;2.92;;;;;;;-145.79;57.37;76758.38;5266260;28;20571;-73
2023/09/06 09:09:58;;;;;;;4.85;3.10;;;;;;;-145.79;57.13;76762.63;5276984;28;20031;-70
2023/09/06 09:12:31;;;;;;;4.47;2.65;;;;;;;-145.79;55.53;76749.91;5268692;28;20065;-71
2023/09/06 09:15:04;;;;;;;6.85;2.97;;;;;;;-145.79;55.56;76732.97;5268385;28;20502;-71
2023/09/06 09:17:39;;;;;;;4.95;2.67;;;;;;;-145.79;56.01;76735.06;5268466;28;20041;-73
2023/09/06 09:20:14;;;;;;;3.22;2.83;;;;;;;-145.79;56.45;76711.75;5272248;28;20029;-73
2023/09/06 09:22:45;;;;;;;6.10;3.15;;;;;;;-145.79;56.57;76716.00;5282362;28;20060;-73
2023/09/06 09:25:23;;;;;;;4.05;3.38;;;;;;;-145.79;56.45;76699.06;5280344;28;20024;-76
2023/09/06 09:27:56;;;;;;;4.85;2.90;;;;;;;-145.79;56.21;76694.81;5278052;28;20021;-76
2023/09/06 09:30:30;;;;;;;5.65;3.25;;;;;;;-145.79;55.99;76686.34;5283229;28;20167;-75
2023/09/06 09:33:03;;;;;;;20.48;18.77;;;;;;;-145.79;55.82;76686.34;5284467;28;20412;-71
2023/09/06 09:35:35;;;;;;;7.63;5.90;;;;;;;-145.79;54.84;76669.38;5283829;28;20028;-73
2023/09/06 09:38:13;;;;;;;4.22;3.42;;;;;;;-145.79;54.79;76658.78;5283670;28;20156;-73
2023/09/06 09:40:44;;;;;;;5.20;3.13;;;;;;;-145.79;54.84;76643.94;5284311;28;20024;-74
2023/09/06 09:43:16;;;;;;;4.32;2.78;;;;;;;-145.79;54.12;76641.84;5283538;28;20040;-72
2023/09/06 09:45:47;;;;;;;4.93;4.45;;;;;;;-145.79;53.87;76614.28;5283237;28;20040;-72
2023/09/06 09:48:23;;;;;;;3.83;2.95;;;;;;;-145.79;53.06;76622.75;5283867;28;20035;-72
2023/09/06 09:50:55;;;;;;;4.47;3.00;;;;;;;-145.79;52.19;76588.84;5283388;28;20032;-72
2023/09/06 09:53:30;;;;;;;3.30;3.00;;;;;;;-145.79;51.86;76601.56;5276066;28;20029;-74
2023/09/06 09:56:06;;;;;;;4.25;3.70;;;;;;;-145.79;51.80;76595.22;5282949;28;20036;-72
2023/09/06 09:58:40;;;;;;;5.25;3.53;;;;;;;-145.79;51.86;76607.91;5275409;28;20472;-74
2023/09/06 10:01:11;;;;;;;8.75;4.53;;;;;;;-145.79;52.21;76597.31;5282720;28;20037;-73
2023/09/06 10:03:44;;;;;;;6.32;4.05;;;;;;;-145.79;52.14;76601.56;5282121;28;20078;-73
2023/09/06 10:06:16;;;;;;;6.93;3.95;;;;;;;-145.79;52.72;76590.97;5282651;28;20111;-72
2023/09/06 10:08:49;;;;;;;4.90;4.40;;;;;;;-145.79;53.04;76584.59;5280936;28;20060;-71
2023/09/06 10:11:21;;;;;;;4.45;4.05;;;;;;;-145.79;53.48;76563.41;5282301;28;20085;-73
2023/09/06 10:13:53;;;;;;;5.85;3.45;;;;;;;-145.79;52.79;76563.41;5272770;28;20024;-73
2023/09/06 10:16:25;;;;;;;4.88;3.88;;;;;;;-145.79;53.14;76548.59;5280444;28;20468;-72
2023/09/06 10:18:57;;;;;;;3.63;3.22;;;;;;;-145.79;52.69;76542.22;5281687;28;20036;-71
2023/09/06 10:21:30;;;;;;;5.18;2.92;;;;;;;-145.79;51.25;76540.09;5278464;28;20158;-72
2023/09/06 10:24:03;;;;;;;6.35;3.25;;;;;;;-145.79;51.33;76518.91;5275237;28;20036;-72
2023/09/06 10:26:36;;;;;;;4.65;3.70;;;;;;;-145.79;50.07;76504.09;5273217;28;20031;-72
2023/09/06 10:29:11;;;;;;;6.40;3.25;;;;;;;-145.79;49.92;76508.31;5267077;28;20111;-71
2023/09/06 10:31:45;;;;;;;5.60;3.28;;;;;;;-145.79;49.40;76497.72;5270938;28;20021;-71
2023/09/06 10:34:20;;;;;;;9.52;3.38;;;;;;;-145.79;49.07;76499.84;5275985;28;20387;-72
2023/09/06 10:36:56;;;;;;;;;;;;;;;-145.79;50.12;76499.84;5272597;28;20028;-73
2023/09/06 10:39:29;;;;;;;;;;;;;;;-145.79;50.05;76491.38;5279912;28;19916;-73
2023/09/06 10:42:11;;;;;;;4.60;3.35;;;;;;;-145.79;49.16;76468.06;5267016;28;19995;-72
2023/09/06 10:45:00;;;;;;;3.78;3.38;;;;;;;-145.79;48.58;76461.69;5268299;28;20142;-73
2023/09/06 10:47:36;;;;;;;4.18;3.40;;;;;;;-145.79;47.17;76446.88;5259452;28;20387;-72
2023/09/06 10:50:12;;;;;;;4.82;3.15;;;;;;;-145.79;46.88;76440.50;5263911;28;20056;-73
2023/09/06 10:52:49;;;;;;;3.40;3.10;;;;;;;-145.79;46.83;76432.03;5269860;28;20087;-72
2023/09/06 10:55:22;;;;;;;3.97;2.80;;;;;;;-145.79;47.11;76423.56;5271770;28;20112;-72
2023/09/06 10:57:57;;;;;;;5.75;4.10;;;;;;;-145.79;47.14;76427.78;5273006;28;20086;-73
2023/09/06 11:00:34;;;;;;;4.37;2.93;;;;;;;-145.79;47.44;76423.56;5270591;28;20032;-73
2023/09/06 11:03:08;;;;;;;4.93;3.72;;;;;;;-145.79;46.78;76417.19;5268937;28;20265;-74
2023/09/06 11:05:46;;;;;;;4.20;3.38;;;;;;;-145.79;47.21;76400.25;5270825;28;20033;-72
2023/09/06 11:08:26;;;;;;;4.95;2.97;;;;;;;-145.79;46.89;76396.00;5269235;28;20029;-75
2023/09/06 11:11:05;;;;;;;5.68;3.50;;;;;;;-145.79;46.67;76385.41;5263206;28;20120;-75
2023/09/06 11:13:38;;;;;;;6.88;3.13;;;;;;;-145.79;45.66;76381.16;5271293;28;20642;-72
2023/09/06 11:16:15;;;;;;;4.03;3.08;;;;;;;-145.79;45.25;76357.84;5274452;28;20032;-74
2023/09/06 11:18:48;;;;;;;6.22;3.17;;;;;;;-145.79;44.96;76359.97;5271181;28;20028;-74
2023/09/06 11:21:21;;;;;;;6.88;6.00;;;;;;;-145.79;44.95;76349.38;5275485;28;20093;-75
2023/09/06 11:23:54;;;;;;;3.05;2.70;;;;;;;-145.79;43.55;76338.78;5282681;28;20032;-74
2023/09/06 11:26:27;;;;;;;4.05;3.22;;;;;;;-145.79;42.35;76338.78;5282532;28;20038;-75
2023/09/06 11:29:05;;;;;;;4.85;3.00;;;;;;;-145.79;41.70;76326.06;5281555;28;20550;-74
2023/09/06 11:31:37;;;;;;;7.28;4.78;;;;;;;-145.79;41.29;76315.47;5282801;28;20024;-73
2023/09/06 11:34:12;;;;;;;5.32;3.10;;;;;;;-145.79;40.87;76300.66;5282447;28;20043;-74
2023/09/06 11:36:43;;;;;;;5.75;3.67;;;;;;;-145.79;41.12;76296.41;5281467;28;20017;-74
2023/09/06 11:39:21;;;;;;;4.30;3.08;;;;;;;-145.79;41.27;76304.88;5281664;28;20320;-74
2023/09/06 11:41:54;;;;;;;4.78;3.25;;;;;;;-145.79;41.51;76292.16;5281817;28;20039;-74
2023/09/06 11:44:26;;;;;;;3.20;2.90;;;;;;;-145.79;41.87;76296.41;5282335;28;20379;-73
2023/09/06 11:46:58;;;;;;;5.32;2.97;;;;;;;-145.79;42.43;76283.69;5282383;28;20025;-73
2023/09/06 11:49:30;;;;;;;4.30;3.20;;;;;;;-145.79;42.59;76266.75;5275221;28;20024;-75
2023/09/06 11:52:05;;;;;;;5.13;3.75;;;;;;;-145.79;43.17;76270.97;5281603;28;20391;-73
2023/09/06 11:54:38;;;;;;;;;;;;;;;-145.79;43.15;76249.78;5273388;28;20028;-73
2023/09/06 11:57:23;;;;;;;7.45;3.83;;;;;;;-145.79;42.32;76232.84;5280991;28;19916;-72
2023/09/06 11:59:58;;;;;;;48.08;43.88;;;;;;;-145.79;41.99;76239.19;5282020;28;20115;-73
2023/09/06 12:02:34;;;;;;;;;;;;;;;-145.79;41.53;76226.47;5282305;28;20028;-73
2023/09/06 12:05:11;;;;;;;4.85;3.90;;;;;;;-145.79;40.70;76215.88;5282364;28;20015;-73
2023/09/06 12:07:43;;;;;;;5.55;3.30;;;;;;;-145.79;40.18;76190.47;5282494;28;20090;-73
2023/09/06 12:10:18;;;;;;;3.08;2.78;;;;;;;-145.79;40.23;76192.56;5282630;28;20514;-73
2023/09/06 12:12:51;;;;;;;3.25;2.90;;;;;;;-145.79;39.62;76177.75;5283950;28;20025;-74
2023/09/06 12:15:25;;;;;;;5.30;2.35;;;;;;;-145.79;38.57;76184.09;5285525;28;20032;-71
2023/09/06 12:17:56;;;;;;;5.13;2.83;;;;;;;-145.79;39.46;76173.50;5276472;28;20021;-72
2023/09/06 12:20:27;;;;;;;5.00;3.20;;;;;;;-145.79;39.33;76177.75;5284721;28;20033;-72
2023/09/06 12:22:59;;;;;;;4.65;3.05;;;;;;;-145.79;38.64;76165.03;5276120;28;20050;-72
2023/09/06 12:25:30;;;;;;;3.65;2.70;;;;;;;-145.79;38.72;76160.78;5282979;28;20028;-72
2023/09/06 12:28:02;;;;;;;6.15;3.30;;;;;;;-145.79;38.42;76148.06;5281573;28;20095;-72
2023/09/06 12:30:34;;;;;;;4.70;3.13;;;;;;;-145.79;39.50;76141.72;5280714;28;20021;-73
2023/09/06 12:33:05;;;;;;;3.80;3.10;;;;;;;-145.79;38.97;76122.66;5278921;28;20046;-73
2023/09/06 12:35:38;;;;;;;5.18;2.88;;;;;;;-145.79;38.90;76131.13;5277854;28;20037;-72
2023/09/06 12:38:09;;;;;;;5.03;4.03;;;;;;;-145.79;38.92;76116.28;5284307;28;20017;-71
2023/09/06 12:40:41;;;;;;;4.75;3.53;;;;;;;-145.79;37.67;76105.69;5283551;28;20511;-72
2023/09/06 12:43:12;;;;;;;6.63;3.28;;;;;;;-145.79;38.05;76082.38;5285337;28;20032;-72
2023/09/06 12:45:47;;;;;;;5.40;4.00;;;;;;;-145.79;38.05;76059.09;5283858;28;20600;-72
2023/09/06 12:48:22;;;;;;;4.07;3.40;;;;;;;-145.79;37.47;76056.97;5283144;28;20016;-71
2023/09/06 12:50:54;;;;;;;3.10;2.70;;;;;;;-145.79;37.30;76050.59;5281100;28;20071;-72
2023/09/06 12:53:25;;;;;;;4.03;2.97;;;;;;;-145.79;37.30;76037.88;5282001;28;20029;-73
2023/09/06 12:55:57;;;;;;;8.85;8.05;;;;;;;-145.79;36.90;76016.69;5284576;28;20490;-72
2023/09/06 12:58:28;;;;;;;17.42;16.05;;;;;;;-145.79;36.97;76010.34;5283266;28;20056;-73
2023/09/06 13:01:01;;;;;;;3.65;2.50;;;;;;;-145.79;36.29;76018.81;5284072;28;20111;-73
2023/09/06 13:03:32;;;;;;;4.57;2.90;;;;;;;-145.79;36.15;76008.22;5285217;28;20024;-72
2023/09/06 13:06:05;;;;;;;4.93;3.03;;;;;;;-145.79;36.70;76004.00;5283540;28;20039;-73
2023/09/06 13:08:36;;;;;;;3.05;2.75;;;;;;;-145.79;36.08;75991.28;5284102;28;20025;-72
2023/09/06 13:11:08;;;;;;;4.00;2.72;;;;;;;-145.79;35.89;75987.03;5278802;28;20098;-73
2023/09/06 13:13:39;;;;;;;5.82;2.67;;;;;;;-145.79;36.18;75982.81;5282373;28;20074;-72
2023/09/06 13:16:10;;;;;;;4.30;3.90;;;;;;;-145.79;36.15;75965.84;5284482;28;20037;-72
2023/09/06 13:18:42;;;;;;;4.72;3.30;;;;;;;-145.79;36.06;75957.38;5283719;28;20028;-75
2023/09/06 13:21:13;;;;;;;5.50;3.55;;;;;;;-145.79;35.34;75944.66;5283359;28;20032;-73
2023/09/06 13:23:45;;;;;;;3.78;3.42;;;;;;;-145.79;34.98;75942.53;5283558;28;20059;-72
2023/09/06 13:26:16;;;;;;;4.13;3.38;;;;;;;-145.79;35.41;75931.94;5284469;28;20024;-73
2023/09/06 13:28:47;;;;;;;6.18;3.42;;;;;;;-145.79;35.03;75931.94;5283753;28;20016;-73
2023/09/06 13:31:19;;;;;;;7.70;4.68;;;;;;;-145.79;34.94;75938.31;5284124;28;20032;-75
2023/09/06 13:33:50;;;;;;;6.70;3.50;;;;;;;-145.79;34.38;75919.22;5284638;28;20400;-75
2023/09/06 13:36:21;;;;;;;3.42;3.00;;;;;;;-145.79;34.70;75900.16;5283011;28;20021;-73
2023/09/06 13:38:53;;;;;;;4.03;3.40;;;;;;;-145.79;34.09;75898.03;5283922;28;20033;-73
2023/09/06 13:41:24;;;;;;;3.50;3.00;;;;;;;-145.79;33.74;75891.69;5283054;28;20021;-73
2023/09/06 13:43:55;;;;;;;5.82;3.17;;;;;;;-145.79;33.83;75887.44;5284388;28;20542;-73
2023/09/06 13:46:27;;;;;;;4.72;3.20;;;;;;;-145.79;33.74;75887.44;5275359;28;20039;-77
2023/09/06 13:49:00;;;;;;;3.33;3.00;;;;;;;-145.79;33.87;75885.34;5283513;28;20440;-72
2023/09/06 13:51:31;;;;;;;7.03;3.10;;;;;;;-145.79;33.98;75870.50;5283840;28;20024;-73
2023/09/06 13:54:05;;;;;;;3.65;3.03;;;;;;;-145.79;32.93;75870.50;5282725;28;20391;-72
2023/09/06 13:56:36;;;;;;;4.35;2.55;;;;;;;-145.79;32.82;75851.44;5282599;28;20380;-72
2023/09/06 13:59:07;;;;;;;2.90;2.65;;;;;;;-145.79;32.29;75859.91;5283539;28;20032;-73
2023/09/06 14:01:39;;;;;;;3.38;2.60;;;;;;;-145.79;32.47;75862.03;5283495;28;20032;-71
2023/09/06 14:04:10;;;;;;;7.75;3.35;;;;;;;-145.79;32.25;75838.72;5283161;28;20024;-71
2023/09/06 14:06:42;;;;;;;12.73;6.15;;;;;;;-145.79;32.16;75855.66;5283017;28;20025;-72
2023/09/06 14:09:14;;;;;;;8.40;4.10;;;;;;;-145.79;32.45;75834.47;5283049;28;20025;-71
2023/09/06 14:11:45;;;;;;;3.13;2.75;;;;;;;-145.79;32.79;75849.31;5283431;28;20107;-72
2023/09/06 14:14:17;;;;;;;6.88;3.85;;;;;;;-145.79;32.47;75832.34;5283253;28;20410;-71
2023/09/06 14:16:48;;;;;;;22.17;7.82;;;;;;;-145.79;32.31;75832.34;5282073;28;20099;-71
2023/09/06 14:19:19;;;;;;;4.35;2.83;;;;;;;-145.79;31.67;75836.59;5282598;28;20044;-71
2023/09/06 14:21:52;;;;;;;6.57;3.10;;;;;;;-145.79;31.67;75832.34;5275982;28;20492;-70
2023/09/06 14:24:24;;;;;;;3.28;2.78;;;;;;;-145.79;32.45;75842.97;5281792;28;20024;-71
2023/09/06 14:26:56;;;;;;;3.00;2.70;;;;;;;-145.79;32.15;75847.19;5283169;28;20097;-71
2023/09/06 14:29:27;;;;;;;3.80;2.60;;;;;;;-145.79;32.23;75842.97;5283108;28;20021;-71
2023/09/06 14:31:59;;;;;;;4.38;3.42;;;;;;;-145.79;32.54;75845.06;5281032;28;20460;-70
2023/09/06 14:34:30;;;;;;;4.32;2.83;;;;;;;-145.79;32.76;75842.97;5272708;28;20074;-70
2023/09/06 14:37:01;;;;;;;6.63;4.00;;;;;;;-145.79;32.08;75838.72;5275228;28;20476;-71
2023/09/06 14:39:33;;;;;;;3.42;3.13;;;;;;;-145.79;32.69;75830.25;5282043;28;20024;-71
2023/09/06 14:42:07;;;;;;;3.72;2.97;;;;;;;-145.79;32.84;75838.72;5282713;28;20024;-72
2023/09/06 14:44:38;;;;;;;3.60;2.65;;;;;;;-145.79;33.20;75830.25;5282148;28;20033;-74
2023/09/06 14:47:11;;;;;;;5.07;3.13;;;;;;;-145.79;33.34;75830.25;5282946;28;20025;-72
2023/09/06 14:49:42;;;;;;;4.13;3.08;;;;;;;-145.79;32.89;75842.97;5282794;28;20020;-71
2023/09/06 14:52:14;;;;;;;5.07;4.13;;;;;;;-145.79;33.52;75838.72;5276405;28;20498;-72
2023/09/06 14:54:45;;;;;;;2.83;2.58;;;;;;;-145.79;32.00;75845.06;5277193;28;20028;-72
2023/09/06 14:57:16;;;;;;;7.50;3.42;;;;;;;-145.79;31.98;75853.56;5282414;28;20032;-72
2023/09/06 14:59:48;;;;;;;4.90;3.03;;;;;;;-145.79;32.40;75838.72;5281500;28;20020;-71
2023/09/06 15:02:19;;;;;;;3.75;3.35;;;;;;;-145.79;31.95;75838.72;5272302;28;20029;-72
2023/09/06 15:04:51;;;;;;;2.80;2.53;;;;;;;-145.79;32.47;75868.38;5282576;28;20017;-71
2023/09/06 15:07:22;;;;;;;3.60;2.80;;;;;;;-145.79;32.39;75864.16;5281540;28;20150;-71
2023/09/06 15:09:54;;;;;;;4.65;3.45;;;;;;;-145.79;32.14;75881.09;5281990;28;20135;-71
2023/09/06 15:12:25;;;;;;;4.82;3.30;;;;;;;-145.79;31.69;75878.97;5282129;28;20028;-72
2023/09/06 15:14:58;;;;;;;3.40;3.10;;;;;;;-145.79;31.72;75893.81;5282582;28;20048;-71
2023/09/06 15:17:30;;;;;;;4.80;3.45;;;;;;;-145.79;31.78;75889.56;5282339;28;20039;-71
2023/09/06 15:20:03;;;;;;;3.88;3.22;;;;;;;-145.79;31.39;75900.16;5281611;28;20032;-71
2023/09/06 15:22:35;;;;;;;2.67;2.42;;;;;;;-145.79;31.80;75895.94;5273610;28;20075;-72
2023/09/06 15:25:11;;;;;;;3.72;2.40;;;;;;;-145.79;31.50;75898.03;5273842;28;20024;-72
2023/09/06 15:27:42;;;;;;;3.38;2.97;;;;;;;-145.79;32.11;75923.47;5272646;28;20024;-73
2023/09/06 15:30:13;;;;;;;6.25;3.40;;;;;;;-145.79;32.19;75902.28;5269639;28;20028;-73
2023/09/06 15:32:45;;;;;;;2.92;2.63;;;;;;;-145.79;32.77;75921.34;5264551;28;20025;-74
2023/09/06 15:35:16;;;;;;;3.53;2.60;;;;;;;-145.79;32.59;75906.53;5273384;28;20033;-72
2023/09/06 15:38:03;;;;;;;4.53;3.67;;;;;;;-145.79;33.08;75921.34;5268716;28;20048;-73
2023/09/06 15:40:34;;;;;;;5.65;3.80;;;;;;;-145.79;33.02;75915.00;5263074;28;20108;-74
2023/09/06 15:43:07;;;;;;;4.03;3.53;;;;;;;-145.79;33.07;75917.13;5272249;28;20202;-74
2023/09/06 15:45:39;;;;;;;7.47;6.78;;;;;;;-145.79;33.28;75923.47;5278645;28;20021;-74
2023/09/06 15:48:10;;;;;;;9.43;4.75;;;;;;;-145.79;32.76;75904.41;5275958;28;20074;-73
2023/09/06 15:50:41;;;;;;;3.47;3.05;;;;;;;-145.79;32.42;75917.13;5274132;28;20025;-72
2023/09/06 15:53:13;;;;;;;5.15;2.90;;;;;;;-145.79;33.11;75902.28;5274775;28;20032;-72
2023/09/06 15:55:44;;;;;;;3.40;3.10;;;;;;;-145.79;33.21;75915.00;5276403;28;20016;-73
2023/09/06 15:58:15;;;;;;;4.82;3.22;;;;;;;-145.79;33.48;75919.22;5276379;28;20042;-72
2023/09/06 16:00:47;;;;;;;3.63;3.10;;;;;;;-145.79;33.15;75915.00;5274112;28;20104;-72
2023/09/06 16:03:19;;;;;;;4.50;3.30;;;;;;;-145.79;33.69;75921.34;5273625;28;20471;-73
2023/09/06 16:05:51;;;;;;;5.80;4.95;;;;;;;-145.79;33.03;75927.72;5271643;28;20024;-71
2023/09/06 16:08:23;;;;;;;3.97;3.53;;;;;;;-145.79;33.17;75931.94;5280234;28;20060;-72
2023/09/06 16:10:54;;;;;;;4.22;3.83;;;;;;;-145.79;33.22;75927.72;5273249;28;20055;-73
2023/09/06 16:13:26;;;;;;;6.68;4.22;;;;;;;-145.79;33.35;75940.41;5273302;28;20029;-73
2023/09/06 16:15:57;;;;;;;3.30;3.00;;;;;;;-145.79;33.52;75936.19;5271240;28;20109;-72
2023/09/06 16:18:29;;;;;;;4.75;3.25;;;;;;;-145.79;34.12;75942.53;5269339;28;20032;-74
2023/09/06 16:21:00;;;;;;;5.25;3.83;;;;;;;-145.79;34.33;75923.47;5277246;28;20036;-73
2023/09/06 16:23:32;;;;;;;4.50;4.10;;;;;;;-145.79;34.70;75934.06;5276528;28;20052;-74
2023/09/06 16:26:07;;;;;;;5.65;4.03;;;;;;;-145.79;34.60;75942.53;5264335;28;20024;-73
2023/09/06 16:28:39;;;;;;;6.55;3.97;;;;;;;-145.79;34.78;75934.06;5276981;28;20039;-73
2023/09/06 16:31:10;;;;;;;4.55;3.88;;;;;;;-145.79;34.64;75925.59;5272880;28;20020;-73
2023/09/06 16:33:41;;;;;;;5.88;4.38;;;;;;;-145.79;35.30;75938.31;5268408;28;20029;-75
2023/09/06 16:36:16;;;;;;;5.20;4.13;;;;;;;-145.79;35.08;75938.31;5263183;28;20025;-74
2023/09/06 16:38:47;;;;;;;10.70;4.90;;;;;;;-145.79;35.37;75948.91;5261226;28;20040;-73
2023/09/06 16:41:18;;;;;;;4.75;3.70;;;;;;;-145.79;35.13;75948.91;5265812;28;20025;-73
2023/09/06 16:43:50;;;;;;;5.53;3.58;;;;;;;-145.79;35.21;75970.09;5250739;28;20531;-75
2023/09/06 16:46:21;;;;;;;4.60;3.80;;;;;;;-145.79;35.91;75976.44;5262872;28;20031;-73
2023/09/06 16:48:53;;;;;;;4.07;3.67;;;;;;;-145.79;35.63;75987.03;5264937;28;20029;-71
2023/09/06 16:51:24;;;;;;;4.10;3.65;;;;;;;-145.79;35.51;75993.41;5266734;28;20032;-72
2023/09/06 16:53:56;;;;;;;6.15;3.47;;;;;;;-145.79;36.40;76010.34;5263529;28;20034;-70
